sensor_id;sensor_type;location;lat;lon;timestamp;pressure;altitude;pressure_sealevel;temperature;humidity
51460;BME280;37534;39.772;2.718;2023-02-05T00:01:42;102510.00;;;3.61;100.00
51460;BME280;37534;39.772;2.718;2023-02-05T00:07:24;102461.31;;;3.28;100.00
51460;BME280;37534;39.772;2.718;2023-02-05T00:10:07;102533.38;;;3.74;100.00
51460;BME280;37534;39.772;2.718;2023-02-05T00:12:46;102475.44;;;3.44;100.00
51460;BME280;37534;39.772;2.718;2023-02-05T00:15:18;102456.28;;;3.30;100.00
51460;BME280;37534;39.772;2.718;2023-02-05T00:17:53;102470.50;;;3.23;100.00
51460;BME280;37534;39.772;2.718;2023-02-05T00:23:41;102557.16;;;3.73;100.00
51460;BME280;37534;39.772;2.718;2023-02-05T00:26:41;102469.84;;;3.56;100.00
51460;BME280;37534;39.772;2.718;2023-02-05T00:29:21;102451.16;;;3.30;100.00
51460;BME280;37534;39.772;2.718;2023-02-05T00:31:49;102456.47;;;3.36;100.00
51460;BME280;37534;39.772;2.718;2023-02-05T00:34:16;102489.66;;;3.36;100.00
51460;BME280;37534;39.772;2.718;2023-02-05T00:37:06;102438.84;;;3.16;100.00
51460;BME280;37534;39.772;2.718;2023-02-05T00:39:48;102481.38;;;3.45;100.00
51460;BME280;37534;39.772;2.718;2023-02-05T00:42:19;102469.06;;;3.31;100.00
51460;BME280;37534;39.772;2.718;2023-02-05T00:44:50;102480.63;;;3.47;100.00
51460;BME280;37534;39.772;2.718;2023-02-05T00:47:18;102441.44;;;3.18;100.00
51460;BME280;37534;39.772;2.718;2023-02-05T00:49:44;102492.56;;;3.48;100.00
51460;BME280;37534;39.772;2.718;2023-02-05T00:52:15;102464.88;;;3.33;100.00
51460;BME280;37534;39.772;2.718;2023-02-05T00:54:44;102467.34;;;3.30;100.00
51460;BME280;37534;39.772;2.718;2023-02-05T00:57:26;102508.59;;;3.70;100.00
51460;BME280;37534;39.772;2.718;2023-02-05T01:00:03;102485.56;;;3.68;100.00
51460;BME280;37534;39.772;2.718;2023-02-05T01:02:41;102499.78;;;3.89;100.00
51460;BME280;37534;39.772;2.718;2023-02-05T01:05:07;102491.47;;;3.94;100.00
51460;BME280;37534;39.772;2.718;2023-02-05T01:07:36;102582.16;;;4.37;100.00
51460;BME280;37534;39.772;2.718;2023-02-05T01:10:04;102469.66;;;3.77;100.00
51460;BME280;37534;39.772;2.718;2023-02-05T01:12:33;102579.09;;;4.51;100.00
51460;BME280;37534;39.772;2.718;2023-02-05T01:15:14;102462.91;;;3.79;100.00
51460;BME280;37534;39.772;2.718;2023-02-05T01:18:01;102496.94;;;4.08;100.00
51460;BME280;37534;39.772;2.718;2023-02-05T01:20:57;102484.97;;;4.06;100.00
51460;BME280;37534;39.772;2.718;2023-02-05T01:24:02;102568.97;;;4.54;100.00
51460;BME280;37534;39.772;2.718;2023-02-05T01:26:48;102584.63;;;4.65;100.00
51460;BME280;37534;39.772;2.718;2023-02-05T01:29:31;102498.50;;;4.03;100.00
51460;BME280;37534;39.772;2.718;2023-02-05T01:32:32;102585.78;;;4.74;100.00
51460;BME280;37534;39.772;2.718;2023-02-05T01:38:14;102473.41;;;4.49;100.00
51460;BME280;37534;39.772;2.718;2023-02-05T01:41:00;102485.53;;;4.56;100.00
51460;BME280;37534;39.772;2.718;2023-02-05T01:43:38;102501.16;;;4.67;100.00
51460;BME280;37534;39.772;2.718;2023-02-05T01:46:28;102557.66;;;5.08;100.00
51460;BME280;37534;39.772;2.718;2023-02-05T01:49:48;102601.38;;;5.16;100.00
51460;BME280;37534;39.772;2.718;2023-02-05T01:52:22;102594.06;;;5.29;100.00
51460;BME280;37534;39.772;2.718;2023-02-05T01:55:00;102494.44;;;4.70;100.00
51460;BME280;37534;39.772;2.718;2023-02-05T01:57:42;102489.06;;;4.61;100.00
51460;BME280;37534;39.772;2.718;2023-02-05T02:00:28;102583.66;;;5.23;100.00
51460;BME280;37534;39.772;2.718;2023-02-05T02:06:00;102528.44;;;4.66;100.00
51460;BME280;37534;39.772;2.718;2023-02-05T02:08:32;102529.41;;;4.71;100.00
51460;BME280;37534;39.772;2.718;2023-02-05T02:11:04;102554.59;;;4.88;100.00
51460;BME280;37534;39.772;2.718;2023-02-05T02:13:43;102583.22;;;4.74;100.00
51460;BME280;37534;39.772;2.718;2023-02-05T02:16:21;102551.03;;;4.83;100.00
51460;BME280;37534;39.772;2.718;2023-02-05T02:18:51;102552.72;;;4.82;100.00
51460;BME280;37534;39.772;2.718;2023-02-05T02:27:33;102548.41;;;5.81;100.00
51460;BME280;37534;39.772;2.718;2023-02-05T02:30:13;102578.00;;;6.87;100.00
51460;BME280;37534;39.772;2.718;2023-02-05T02:33:27;102569.56;;;6.94;100.00
51460;BME280;37534;39.772;2.718;2023-02-05T02:39:09;102552.97;;;7.73;98.49
51460;BME280;37534;39.772;2.718;2023-02-05T02:44:45;102608.13;;;9.29;85.98
51460;BME280;37534;39.772;2.718;2023-02-05T02:47:27;102484.50;;;9.34;82.39
51460;BME280;37534;39.772;2.718;2023-02-05T02:50:29;102502.66;;;9.49;81.57
51460;BME280;37534;39.772;2.718;2023-02-05T02:53:03;102526.91;;;9.81;79.05
51460;BME280;37534;39.772;2.718;2023-02-05T02:55:37;102498.78;;;10.30;72.61
51460;BME280;37534;39.772;2.718;2023-02-05T02:58:24;102583.31;;;10.83;74.44
51460;BME280;37534;39.772;2.718;2023-02-05T03:01:00;102566.94;;;10.83;71.89
51460;BME280;37534;39.772;2.718;2023-02-05T03:03:45;102539.31;;;10.43;75.49
51460;BME280;37534;39.772;2.718;2023-02-05T03:06:18;102497.22;;;10.72;69.81
51460;BME280;37534;39.772;2.718;2023-02-05T03:09:10;102592.03;;;11.66;66.40
51460;BME280;37534;39.772;2.718;2023-02-05T03:11:40;102520.47;;;10.84;71.44
51460;BME280;37534;39.772;2.718;2023-02-05T03:14:06;102552.34;;;10.82;70.90
51460;BME280;37534;39.772;2.718;2023-02-05T03:16:34;102536.84;;;10.96;70.89
51460;BME280;37534;39.772;2.718;2023-02-05T03:19:01;102517.06;;;11.01;64.08
51460;BME280;37534;39.772;2.718;2023-02-05T03:22:05;102586.00;;;11.70;61.71
51460;BME280;37534;39.772;2.718;2023-02-05T03:24:39;102589.41;;;11.84;61.84
51460;BME280;37534;39.772;2.718;2023-02-05T03:27:10;102543.75;;;11.68;59.73
51460;BME280;37534;39.772;2.718;2023-02-05T03:29:43;102596.31;;;11.88;62.30
51460;BME280;37534;39.772;2.718;2023-02-05T03:32:24;102580.81;;;12.10;59.90
51460;BME280;37534;39.772;2.718;2023-02-05T03:35:14;102596.28;;;12.22;58.95
51460;BME280;37534;39.772;2.718;2023-02-05T03:41:23;102611.75;;;12.44;55.10
51460;BME280;37534;39.772;2.718;2023-02-05T03:44:24;102595.28;;;12.59;54.05
51460;BME280;37534;39.772;2.718;2023-02-05T03:50:17;102592.66;;;12.72;53.34
51460;BME280;37534;39.772;2.718;2023-02-05T03:56:36;102619.41;;;12.74;53.82
51460;BME280;37534;39.772;2.718;2023-02-05T03:59:16;102516.09;;;12.16;53.84
51460;BME280;37534;39.772;2.718;2023-02-05T04:02:03;102578.97;;;12.43;54.94
51460;BME280;37534;39.772;2.718;2023-02-05T04:04:50;102574.63;;;12.46;54.91
51460;BME280;37534;39.772;2.718;2023-02-05T04:07:22;102528.94;;;12.39;54.30
51460;BME280;37534;39.772;2.718;2023-02-05T04:10:15;102581.50;;;12.57;54.66
51460;BME280;37534;39.772;2.718;2023-02-05T04:13:23;102555.59;;;12.55;55.02
51460;BME280;37534;39.772;2.718;2023-02-05T04:19:27;102536.56;;;12.67;56.95
51460;BME280;37534;39.772;2.718;2023-02-05T04:25:34;102547.84;;;12.55;55.08
51460;BME280;37534;39.772;2.718;2023-02-05T04:28:29;102637.41;;;13.01;56.40
51460;BME280;37534;39.772;2.718;2023-02-05T04:31:01;102647.78;;;13.02;56.35
51460;BME280;37534;39.772;2.718;2023-02-05T04:33:47;102535.00;;;12.35;59.21
51460;BME280;37534;39.772;2.718;2023-02-05T04:37:09;102571.25;;;12.27;59.45
51460;BME280;37534;39.772;2.718;2023-02-05T04:40:33;102579.84;;;12.39;58.07
51460;BME280;37534;39.772;2.718;2023-02-05T04:47:17;102641.84;;;12.76;58.22
51460;BME280;37534;39.772;2.718;2023-02-05T04:50:14;102594.56;;;12.18;59.74
51460;BME280;37534;39.772;2.718;2023-02-05T04:53:21;102579.00;;;12.33;58.77
51460;BME280;37534;39.772;2.718;2023-02-05T04:59:05;102558.34;;;12.18;59.92
51460;BME280;37534;39.772;2.718;2023-02-05T05:01:40;102654.81;;;12.72;60.91
51460;BME280;37534;39.772;2.718;2023-02-05T05:07:55;102584.22;;;12.20;62.70
51460;BME280;37534;39.772;2.718;2023-02-05T05:11:14;102613.50;;;12.39;63.50
51460;BME280;37534;39.772;2.718;2023-02-05T05:20:30;102585.91;;;12.28;62.12
51460;BME280;37534;39.772;2.718;2023-02-05T05:22:58;102603.16;;;12.35;61.30
51460;BME280;37534;39.772;2.718;2023-02-05T05:25:30;102668.66;;;12.61;62.33
51460;BME280;37534;39.772;2.718;2023-02-05T05:28:20;102597.19;;;12.09;63.49
51460;BME280;37534;39.772;2.718;2023-02-05T05:30:52;102667.84;;;12.52;65.64
51460;BME280;37534;39.772;2.718;2023-02-05T05:33:26;102639.41;;;12.26;64.33
51460;BME280;37534;39.772;2.718;2023-02-05T05:35:58;102620.44;;;12.15;62.11
51460;BME280;37534;39.772;2.718;2023-02-05T05:38:51;102660.88;;;12.64;64.53
51460;BME280;37534;39.772;2.718;2023-02-05T05:41:46;102670.41;;;12.52;66.79
51460;BME280;37534;39.772;2.718;2023-02-05T05:44:42;102685.06;;;12.50;66.98
51460;BME280;37534;39.772;2.718;2023-02-05T05:47:33;102608.38;;;12.11;65.55
51460;BME280;37534;39.772;2.718;2023-02-05T05:50:32;102638.56;;;12.21;66.92
51460;BME280;37534;39.772;2.718;2023-02-05T05:53:14;102627.34;;;12.19;69.15
51460;BME280;37534;39.772;2.718;2023-02-05T05:56:15;102672.13;;;12.60;68.12
51460;BME280;37534;39.772;2.718;2023-02-05T05:59:01;102601.50;;;12.07;68.13
51460;BME280;37534;39.772;2.718;2023-02-05T06:04:58;102712.72;;;12.39;70.13
51460;BME280;37534;39.772;2.718;2023-02-05T06:07:40;102704.09;;;12.39;68.95
51460;BME280;37534;39.772;2.718;2023-02-05T06:10:17;102631.69;;;12.06;68.86
51460;BME280;37534;39.772;2.718;2023-02-05T06:12:43;102630.81;;;12.03;70.91
51460;BME280;37534;39.772;2.718;2023-02-05T06:15:13;102697.19;;;12.39;72.82
51460;BME280;37534;39.772;2.718;2023-02-05T06:17:55;102630.81;;;11.93;72.80
51460;BME280;37534;39.772;2.718;2023-02-05T06:20:47;102698.03;;;12.40;72.62
51460;BME280;37534;39.772;2.718;2023-02-05T06:23:33;102633.44;;;11.90;72.07
51460;BME280;37534;39.772;2.718;2023-02-05T06:26:28;102637.72;;;12.04;73.32
51460;BME280;37534;39.772;2.718;2023-02-05T06:32:25;102704.06;;;12.46;73.68
51460;BME280;37534;39.772;2.718;2023-02-05T06:35:33;102730.69;;;12.93;73.12
51460;BME280;37534;39.772;2.718;2023-02-05T06:38:38;102652.38;;;12.15;74.16
51460;BME280;37534;39.772;2.718;2023-02-05T06:41:24;102667.88;;;12.11;74.54
51460;BME280;37534;39.772;2.718;2023-02-05T06:43:51;102741.09;;;12.81;73.22
51460;BME280;37534;39.772;2.718;2023-02-05T06:50:08;102642.88;;;11.60;76.51
51460;BME280;37534;39.772;2.718;2023-02-05T06:52:56;102663.56;;;11.73;76.48
51460;BME280;37534;39.772;2.718;2023-02-05T06:55:50;102759.28;;;12.48;76.85
51460;BME280;37534;39.772;2.718;2023-02-05T06:58:29;102762.72;;;12.63;77.12
51460;BME280;37534;39.772;2.718;2023-02-05T07:01:07;102689.44;;;12.13;79.28
51460;BME280;37534;39.772;2.718;2023-02-05T07:03:35;102693.78;;;11.94;79.68
51460;BME280;37534;39.772;2.718;2023-02-05T07:06:08;102692.00;;;11.88;81.00
51460;BME280;37534;39.772;2.718;2023-02-05T07:08:52;102751.56;;;12.19;83.30
51460;BME280;37534;39.772;2.718;2023-02-05T07:11:22;102698.03;;;11.84;84.06
51460;BME280;37534;39.772;2.718;2023-02-05T07:13:53;102742.94;;;12.28;80.40
51460;BME280;37534;39.772;2.718;2023-02-05T07:16:21;102704.97;;;11.85;81.24
51460;BME280;37534;39.772;2.718;2023-02-05T07:19:09;102750.69;;;12.09;84.92
51460;BME280;37534;39.772;2.718;2023-02-05T07:22:27;102703.22;;;11.78;84.53
51460;BME280;37534;39.772;2.718;2023-02-05T07:24:49;102739.47;;;12.04;86.85
51460;BME280;37534;39.772;2.718;2023-02-05T07:27:35;102703.28;;;12.00;86.39
51460;BME280;37534;39.772;2.718;2023-02-05T07:30:24;102715.34;;;12.07;89.31
51460;BME280;37534;39.772;2.718;2023-02-05T07:33:13;102730.84;;;12.13;90.91
51460;BME280;37534;39.772;2.718;2023-02-05T07:35:41;102776.56;;;12.52;92.68
51460;BME280;37534;39.772;2.718;2023-02-05T07:38:10;102791.22;;;12.61;91.37
51460;BME280;37534;39.772;2.718;2023-02-05T07:41:02;102733.47;;;12.08;92.02
51460;BME280;37534;39.772;2.718;2023-02-05T07:43:57;102788.63;;;12.18;93.69
51460;BME280;37534;39.772;2.718;2023-02-05T07:46:28;102729.91;;;11.63;94.73
51460;BME280;37534;39.772;2.718;2023-02-05T07:48:59;102742.00;;;11.67;97.16
51460;BME280;37534;39.772;2.718;2023-02-05T07:51:33;102716.13;;;11.53;98.44
51460;BME280;37534;39.772;2.718;2023-02-05T07:54:33;102786.91;;;11.94;97.08
51460;BME280;37534;39.772;2.718;2023-02-05T07:57:29;102820.53;;;12.08;98.96
51460;BME280;37534;39.772;2.718;2023-02-05T08:00:00;102706.63;;;11.55;97.87
51460;BME280;37534;39.772;2.718;2023-02-05T08:05:29;102730.75;;;11.48;98.81
51460;BME280;37534;39.772;2.718;2023-02-05T08:08:16;102819.72;;;12.41;94.61
51460;BME280;37534;39.772;2.718;2023-02-05T08:11:19;102773.09;;;12.03;94.95
51460;BME280;37534;39.772;2.718;2023-02-05T08:14:09;102732.53;;;11.71;96.91
51460;BME280;37534;39.772;2.718;2023-02-05T08:16:41;102738.56;;;11.90;95.69
51460;BME280;37534;39.772;2.718;2023-02-05T08:19:18;102733.38;;;11.68;96.57
51460;BME280;37534;39.772;2.718;2023-02-05T08:21:53;102739.41;;;11.72;98.22
51460;BME280;37534;39.772;2.718;2023-02-05T08:24:42;102742.06;;;11.96;91.31
51460;BME280;37534;39.772;2.718;2023-02-05T08:27:11;102773.13;;;12.07;92.74
51460;BME280;37534;39.772;2.718;2023-02-05T08:29:51;102780.91;;;12.13;92.13
51460;BME280;37534;39.772;2.718;2023-02-05T08:32:22;102842.13;;;12.45;94.66
51460;BME280;37534;39.772;2.718;2023-02-05T08:34:54;102766.22;;;12.11;94.05
51460;BME280;37534;39.772;2.718;2023-02-05T08:37:27;102746.34;;;11.99;92.54
51460;BME280;37534;39.772;2.718;2023-02-05T08:40:13;102736.88;;;12.43;93.26
51460;BME280;37534;39.772;2.718;2023-02-05T08:43:03;102758.13;;;14.64;77.74
51460;BME280;37534;39.772;2.718;2023-02-05T08:45:32;102776.84;;;16.71;66.86
51460;BME280;37534;39.772;2.718;2023-02-05T08:47:58;102847.06;;;18.78;54.82
51460;BME280;37534;39.772;2.718;2023-02-05T08:50:24;102798.84;;;19.50;51.00
51460;BME280;37534;39.772;2.718;2023-02-05T08:52:53;102793.78;;;21.50;46.61
51460;BME280;37534;39.772;2.718;2023-02-05T08:55:35;102821.50;;;22.85;41.13
51460;BME280;37534;39.772;2.718;2023-02-05T08:58:28;102807.31;;;23.46;39.87
51460;BME280;37534;39.772;2.718;2023-02-05T09:01:03;102797.09;;;23.57;37.04
51460;BME280;37534;39.772;2.718;2023-02-05T09:03:43;102792.59;;;23.23;38.01
51460;BME280;37534;39.772;2.718;2023-02-05T09:06:18;102808.09;;;22.89;38.36
51460;BME280;37534;39.772;2.718;2023-02-05T09:08:56;102809.69;;;23.69;36.61
51460;BME280;37534;39.772;2.718;2023-02-05T09:11:28;102806.25;;;22.91;38.45
51460;BME280;37534;39.772;2.718;2023-02-05T09:13:56;102798.69;;;23.61;37.58
51460;BME280;37534;39.772;2.718;2023-02-05T09:16:39;102856.47;;;25.05;36.08
51460;BME280;37534;39.772;2.718;2023-02-05T09:19:10;102803.22;;;25.13;34.79
51460;BME280;37534;39.772;2.718;2023-02-05T09:21:36;102843.44;;;25.36;36.28
51460;BME280;37534;39.772;2.718;2023-02-05T09:24:13;102861.03;;;26.60;34.88
51460;BME280;37534;39.772;2.718;2023-02-05T09:26:52;102791.44;;;26.72;33.64
51460;BME280;37534;39.772;2.718;2023-02-05T09:29:19;102855.03;;;27.98;32.60
51460;BME280;37534;39.772;2.718;2023-02-05T09:31:54;102844.16;;;27.61;32.17
51460;BME280;37534;39.772;2.718;2023-02-05T09:34:30;102881.22;;;27.05;32.95
51460;BME280;37534;39.772;2.718;2023-02-05T09:37:15;102794.59;;;24.94;35.00
51460;BME280;37534;39.772;2.718;2023-02-05T09:39:49;102809.72;;;23.31;38.44
51460;BME280;37534;39.772;2.718;2023-02-05T09:50:29;102791.00;;;21.97;42.95
51460;BME280;37534;39.772;2.718;2023-02-05T09:53:11;102859.59;;;21.91;43.05
51460;BME280;37534;39.772;2.718;2023-02-05T09:56:00;102806.38;;;20.42;45.74
51460;BME280;37534;39.772;2.718;2023-02-05T09:58:32;102822.53;;;19.75;48.66
51460;BME280;37534;39.772;2.718;2023-02-05T10:04:10;102816.41;;;18.85;53.61
51460;BME280;37534;39.772;2.718;2023-02-05T10:09:26;102891.75;;;18.33;59.45
51460;BME280;37534;39.772;2.718;2023-02-05T10:19:15;102860.06;;;16.80;68.36
51460;BME280;37534;39.772;2.718;2023-02-05T10:24:35;102895.94;;;16.67;71.85
51460;BME280;37534;39.772;2.718;2023-02-05T10:28:05;102889.41;;;16.42;73.75
51460;BME280;37534;39.772;2.718;2023-02-05T10:33:49;102878.28;;;17.30;70.98
51460;BME280;37534;39.772;2.718;2023-02-05T10:36:25;102807.19;;;17.20;68.38
51460;BME280;37534;39.772;2.718;2023-02-05T10:39:00;102891.91;;;17.46;69.97
51460;BME280;37534;39.772;2.718;2023-02-05T10:41:41;102887.00;;;17.73;69.83
51460;BME280;37534;39.772;2.718;2023-02-05T10:44:39;102865.25;;;17.30;69.04
51460;BME280;37534;39.772;2.718;2023-02-05T10:47:35;102803.09;;;17.08;67.86
51460;BME280;37534;39.772;2.718;2023-02-05T10:53:19;102843.66;;;18.04;64.32
51460;BME280;37534;39.772;2.718;2023-02-05T10:55:55;102842.09;;;17.97;63.15
51460;BME280;37534;39.772;2.718;2023-02-05T10:58:51;102875.22;;;19.03;57.50
51460;BME280;37534;39.772;2.718;2023-02-05T11:04:38;102875.03;;;19.09;57.16
51460;BME280;37534;39.772;2.718;2023-02-05T11:07:39;102812.09;;;20.02;49.53
51460;BME280;37534;39.772;2.718;2023-02-05T11:10:29;102821.38;;;20.89;44.67
51460;BME280;37534;39.772;2.718;2023-02-05T11:16:42;102864.06;;;24.26;38.23
51460;BME280;37534;39.772;2.718;2023-02-05T11:19:32;102822.50;;;24.14;34.55
51460;BME280;37534;39.772;2.718;2023-02-05T11:22:10;102818.81;;;23.62;35.03
51460;BME280;37534;39.772;2.718;2023-02-05T11:25:23;102806.72;;;24.12;33.42
51460;BME280;37534;39.772;2.718;2023-02-05T11:28:18;102866.69;;;25.77;31.46
51460;BME280;37534;39.772;2.718;2023-02-05T11:34:16;102807.50;;;24.66;30.37
51460;BME280;37534;39.772;2.718;2023-02-05T11:36:54;102780.75;;;24.22;30.78
51460;BME280;37534;39.772;2.718;2023-02-05T11:40:13;102858.63;;;24.81;29.60
51460;BME280;37534;39.772;2.718;2023-02-05T11:46:28;102751.66;;;24.74;30.46
51460;BME280;37534;39.772;2.718;2023-02-05T11:52:38;102777.03;;;24.61;31.68
51460;BME280;37534;39.772;2.718;2023-02-05T11:55:27;102747.78;;;25.45;30.90
51460;BME280;37534;39.772;2.718;2023-02-05T11:58:21;102804.00;;;25.79;30.12
51460;BME280;37534;39.772;2.718;2023-02-05T12:07:27;102764.94;;;27.97;28.40
51460;BME280;37534;39.772;2.718;2023-02-05T12:10:11;102765.94;;;28.97;27.31
51460;BME280;37534;39.772;2.718;2023-02-05T12:17:09;102782.47;;;28.25;27.43
51460;BME280;37534;39.772;2.718;2023-02-05T12:32:30;102705.19;;;28.04;26.80
51460;BME280;37534;39.772;2.718;2023-02-05T12:35:42;102736.34;;;27.20;28.18
51460;BME280;37534;39.772;2.718;2023-02-05T12:38:20;102742.56;;;26.92;27.48
51460;BME280;37534;39.772;2.718;2023-02-05T12:56:25;102764.50;;;27.63;25.10
51460;BME280;37534;39.772;2.718;2023-02-05T12:59:52;102704.91;;;27.81;25.21
51460;BME280;37534;39.772;2.718;2023-02-05T13:08:07;102738.16;;;27.47;26.83
51460;BME280;37534;39.772;2.718;2023-02-05T13:11:02;102745.13;;;29.63;25.47
51460;BME280;37534;39.772;2.718;2023-02-05T13:19:58;102704.00;;;28.08;26.19
51460;BME280;37534;39.772;2.718;2023-02-05T13:22:39;102678.75;;;28.15;25.96
51460;BME280;37534;39.772;2.718;2023-02-05T13:31:36;102629.75;;;28.45;25.96
51460;BME280;37534;39.772;2.718;2023-02-05T13:34:17;102665.91;;;28.22;25.94
51460;BME280;37534;39.772;2.718;2023-02-05T13:43:36;102716.75;;;28.29;26.63
51460;BME280;37534;39.772;2.718;2023-02-05T14:06:53;102675.81;;;26.01;27.38
51460;BME280;37534;39.772;2.718;2023-02-05T14:09:43;102666.66;;;24.99;27.45
51460;BME280;37534;39.772;2.718;2023-02-05T14:12:41;102596.31;;;25.14;27.09
51460;BME280;37534;39.772;2.718;2023-02-05T14:15:24;102641.91;;;26.07;26.88
51460;BME280;37534;39.772;2.718;2023-02-05T14:17:54;102632.84;;;27.36;25.86
51460;BME280;37534;39.772;2.718;2023-02-05T14:22:59;102607.09;;;27.77;24.49
51460;BME280;37534;39.772;2.718;2023-02-05T14:31:49;102679.16;;;27.30;25.63
51460;BME280;37534;39.772;2.718;2023-02-05T14:34:44;102678.91;;;28.51;23.98
51460;BME280;37534;39.772;2.718;2023-02-05T14:37:42;102609.16;;;26.10;24.61
51460;BME280;37534;39.772;2.718;2023-02-05T14:41:12;102651.84;;;26.04;25.04
51460;BME280;37534;39.772;2.718;2023-02-05T14:43:40;102602.25;;;26.78;24.55
51460;BME280;37534;39.772;2.718;2023-02-05T14:49:02;102575.72;;;23.06;26.37
51460;BME280;37534;39.772;2.718;2023-02-05T14:51:49;102573.44;;;22.62;26.65
51460;BME280;37534;39.772;2.718;2023-02-05T14:54:50;102652.13;;;23.76;26.42
51460;BME280;37534;39.772;2.718;2023-02-05T14:57:21;102589.44;;;23.83;25.94
51460;BME280;37534;39.772;2.718;2023-02-05T15:00:36;102579.84;;;25.84;23.94
51460;BME280;37534;39.772;2.718;2023-02-05T15:09:02;102522.09;;;26.61;22.50
51460;BME280;37534;39.772;2.718;2023-02-05T15:22:55;102536.91;;;24.91;24.13
51460;BME280;37534;39.772;2.718;2023-02-05T15:25:42;102602.97;;;24.42;24.57
51460;BME280;37534;39.772;2.718;2023-02-05T15:28:49;102552.19;;;23.38;25.64
51460;BME280;37534;39.772;2.718;2023-02-05T15:31:42;102555.53;;;24.08;25.80
51460;BME280;37534;39.772;2.718;2023-02-05T15:34:58;102571.88;;;23.99;26.39
51460;BME280;37534;39.772;2.718;2023-02-05T15:37:54;102528.06;;;23.46;26.64
51460;BME280;37534;39.772;2.718;2023-02-05T15:40:28;102541.88;;;23.51;26.93
51460;BME280;37534;39.772;2.718;2023-02-05T15:42:59;102588.03;;;23.23;27.51
51460;BME280;37534;39.772;2.718;2023-02-05T15:45:32;102540.31;;;22.39;27.76
51460;BME280;37534;39.772;2.718;2023-02-05T15:48:29;102492.13;;;22.92;27.25
51460;BME280;37534;39.772;2.718;2023-02-05T15:51:12;102512.78;;;23.00;26.63
51460;BME280;37534;39.772;2.718;2023-02-05T15:53:50;102514.59;;;22.46;27.61
51460;BME280;37534;39.772;2.718;2023-02-05T15:56:36;102558.97;;;21.74;29.10
51460;BME280;37534;39.772;2.718;2023-02-05T15:59:13;102589.66;;;21.74;29.99
51460;BME280;37534;39.772;2.718;2023-02-05T16:02:28;102581.81;;;20.87;30.43
51460;BME280;37534;39.772;2.718;2023-02-05T16:05:18;102578.44;;;20.14;31.72
51460;BME280;37534;39.772;2.718;2023-02-05T16:07:48;102506.78;;;18.61;32.70
51460;BME280;37534;39.772;2.718;2023-02-05T16:10:27;102482.94;;;17.51;34.91
51460;BME280;37534;39.772;2.718;2023-02-05T16:13:01;102569.34;;;17.40;36.28
51460;BME280;37534;39.772;2.718;2023-02-05T16:15:38;102548.53;;;16.62;37.46
51460;BME280;37534;39.772;2.718;2023-02-05T16:18:07;102567.22;;;16.42;37.90
51460;BME280;37534;39.772;2.718;2023-02-05T16:20:44;102540.38;;;15.95;39.12
51460;BME280;37534;39.772;2.718;2023-02-05T16:23:22;102572.59;;;15.89;40.47
51460;BME280;37534;39.772;2.718;2023-02-05T16:29:01;102488.13;;;15.08;42.03
51460;BME280;37534;39.772;2.718;2023-02-05T16:31:42;102557.00;;;15.36;42.99
51460;BME280;37534;39.772;2.718;2023-02-05T16:34:28;102488.34;;;14.95;44.11
51460;BME280;37534;39.772;2.718;2023-02-05T16:37:00;102518.25;;;14.63;46.58
51460;BME280;37534;39.772;2.718;2023-02-05T16:47:41;102527.59;;;14.08;52.37
51460;BME280;37534;39.772;2.718;2023-02-05T16:50:36;102575.19;;;14.11;55.10
51460;BME280;37534;39.772;2.718;2023-02-05T16:53:27;102517.91;;;13.42;56.63
51460;BME280;37534;39.772;2.718;2023-02-05T17:02:45;102574.19;;;13.23;60.67
51460;BME280;37534;39.772;2.718;2023-02-05T17:05:27;102495.28;;;12.41;64.26
51460;BME280;37534;39.772;2.718;2023-02-05T17:08:24;102572.03;;;12.51;66.70
51460;BME280;37534;39.772;2.718;2023-02-05T17:11:02;102498.91;;;11.95;67.29
51460;BME280;37534;39.772;2.718;2023-02-05T17:13:52;102517.81;;;12.14;67.82
51460;BME280;37534;39.772;2.718;2023-02-05T17:16:50;102522.19;;;11.96;69.92
51460;BME280;37534;39.772;2.718;2023-02-05T17:19:26;102545.44;;;11.79;71.87
51460;BME280;37534;39.772;2.718;2023-02-05T17:22:23;102554.09;;;11.63;75.38
51460;BME280;37534;39.772;2.718;2023-02-05T17:24:49;102574.78;;;11.65;77.07
51460;BME280;37534;39.772;2.718;2023-02-05T17:27:51;102556.72;;;11.46;75.55
51460;BME280;37534;39.772;2.718;2023-02-05T17:30:22;102511.91;;;11.16;77.19
51460;BME280;37534;39.772;2.718;2023-02-05T17:33:06;102586.84;;;11.47;78.57
51460;BME280;37534;39.772;2.718;2023-02-05T17:35:37;102529.13;;;11.11;78.52
51460;BME280;37534;39.772;2.718;2023-02-05T17:38:09;102555.84;;;11.18;78.86
51460;BME280;37534;39.772;2.718;2023-02-05T17:41:10;102513.59;;;10.80;79.05
51460;BME280;37534;39.772;2.718;2023-02-05T17:44:05;102557.47;;;10.79;82.29
51460;BME280;37534;39.772;2.718;2023-02-05T17:46:40;102589.28;;;10.67;86.15
51460;BME280;37534;39.772;2.718;2023-02-05T17:49:11;102559.16;;;10.61;85.67
51460;BME280;37534;39.772;2.718;2023-02-05T17:51:52;102566.94;;;10.75;85.23
51460;BME280;37534;39.772;2.718;2023-02-05T17:54:54;102539.19;;;10.28;86.42
51460;BME280;37534;39.772;2.718;2023-02-05T17:57:54;102623.72;;;10.66;89.34
51460;BME280;37534;39.772;2.718;2023-02-05T18:00:40;102551.97;;;10.03;89.50
51460;BME280;37534;39.772;2.718;2023-02-05T18:03:24;102557.84;;;9.81;91.59
51460;BME280;37534;39.772;2.718;2023-02-05T18:06:17;102557.03;;;9.86;93.17
51460;BME280;37534;39.772;2.718;2023-02-05T18:08:51;102623.44;;;10.20;93.69
51460;BME280;37534;39.772;2.718;2023-02-05T18:11:39;102623.31;;;10.04;95.09
51460;BME280;37534;39.772;2.718;2023-02-05T18:14:16;102555.91;;;9.52;97.41
51460;BME280;37534;39.772;2.718;2023-02-05T18:17:00;102546.50;;;9.54;98.84
51460;BME280;37534;39.772;2.718;2023-02-05T18:19:28;102586.16;;;9.75;99.63
51460;BME280;37534;39.772;2.718;2023-02-05T18:21:54;102554.16;;;9.46;98.37